createdAt,value
2023-01-06T00:00:45.498Z,10.20
2023-01-06T00:03:11.987Z,10.20
2023-01-06T00:05:38.366Z,10.21
2023-01-06T00:08:04.704Z,10.26
2023-01-06T00:10:31.111Z,10.25
2023-01-06T00:12:57.421Z,10.28
2023-01-06T00:15:23.762Z,10.23
2023-01-06T00:17:50.305Z,10.29
2023-01-06T00:20:16.720Z,10.34
2023-01-06T00:22:43.242Z,10.34
2023-01-06T00:25:10.639Z,10.33
2023-01-06T00:27:38.235Z,10.31
2023-01-06T00:30:07.150Z,10.30
2023-01-06T00:32:33.829Z,10.34
2023-01-06T00:35:00.293Z,10.35
2023-01-06T00:37:26.611Z,10.39
2023-01-06T00:39:52.985Z,10.38
2023-01-06T00:42:19.364Z,10.36
2023-01-06T00:44:45.752Z,10.37
2023-01-06T00:47:12.556Z,10.43
2023-01-06T00:49:39.021Z,10.40
2023-01-06T00:52:05.459Z,10.39
2023-01-06T00:54:31.850Z,10.39
2023-01-06T00:56:58.411Z,10.37
2023-01-06T00:59:26.504Z,10.34
2023-01-06T01:01:56.703Z,10.36
2023-01-06T01:04:24.472Z,10.36
2023-01-06T01:06:52.240Z,10.41
2023-01-06T01:09:30.090Z,10.32
2023-01-06T01:12:09.665Z,10.34
2023-01-06T01:14:51.691Z,10.34
2023-01-06T01:17:24.869Z,10.35
2023-01-06T01:19:54.304Z,10.40
2023-01-06T01:22:21.715Z,10.36
2023-01-06T01:24:48.080Z,10.35
2023-01-06T01:27:15.065Z,10.34
2023-01-06T01:29:41.408Z,10.37
2023-01-06T01:32:08.375Z,10.40
2023-01-06T01:34:34.897Z,10.43
2023-01-06T01:37:01.577Z,10.44
2023-01-06T01:39:29.410Z,10.42
2023-01-06T01:41:57.817Z,10.42
2023-01-06T01:44:54.135Z,10.50
2023-01-06T01:47:32.217Z,10.50
2023-01-06T01:50:04.506Z,10.57
2023-01-06T01:52:33.376Z,10.56
2023-01-06T01:55:01.190Z,10.52
2023-01-06T01:57:41.702Z,10.61
2023-01-06T02:00:09.854Z,10.58
2023-01-06T02:02:43.140Z,10.58
2023-01-06T02:05:16.550Z,10.62
2023-01-06T02:07:42.978Z,10.62
2023-01-06T02:10:17.091Z,10.63
2023-01-06T02:12:45.768Z,10.62
2023-01-06T02:15:27.918Z,10.60
2023-01-06T02:18:02.922Z,10.63
2023-01-06T02:20:39.442Z,10.57
2023-01-06T02:23:25.456Z,10.59
2023-01-06T02:26:25.759Z,10.50
2023-01-06T02:29:20.236Z,10.48
2023-01-06T02:31:57.069Z,10.48
2023-01-06T02:35:02.328Z,10.37
2023-01-06T02:38:06.209Z,10.40
2023-01-06T02:40:54.333Z,10.29
2023-01-06T02:43:31.665Z,10.31
2023-01-06T02:46:16.227Z,10.29
2023-01-06T02:48:48.691Z,10.26
2023-01-06T02:51:41.271Z,10.31
2023-01-06T02:54:32.763Z,10.26
2023-01-06T02:57:28.400Z,10.21
2023-01-06T03:00:09.579Z,10.21
2023-01-06T03:02:41.295Z,10.15
2023-01-06T03:05:11.137Z,10.15
2023-01-06T03:07:39.068Z,10.10
2023-01-06T03:10:08.569Z,10.13
2023-01-06T03:13:01.424Z,10.20
2023-01-06T03:15:28.693Z,10.15
2023-01-06T03:17:55.140Z,10.15
2023-01-06T03:20:21.631Z,10.18
2023-01-06T03:22:48.027Z,10.13
2023-01-06T03:25:15.558Z,10.13
2023-01-06T03:27:43.550Z,10.12
2023-01-06T03:30:12.169Z,10.20
2023-01-06T03:33:02.828Z,10.16
2023-01-06T03:35:47.225Z,10.16
2023-01-06T03:38:39.479Z,10.16
2023-01-06T03:42:01.300Z,10.19
2023-01-06T03:44:40.290Z,10.14
2023-01-06T03:47:21.596Z,10.16
2023-01-06T03:49:56.976Z,10.12
2023-01-06T03:52:30.055Z,10.13
2023-01-06T03:55:06.264Z,10.10
2023-01-06T03:57:36.690Z,10.06
2023-01-06T04:00:15.482Z,10.05
2023-01-06T04:02:47.249Z,10.11
2023-01-06T04:05:19.750Z,10.14
2023-01-06T04:07:47.986Z,10.09
2023-01-06T04:10:17.587Z,10.04
2023-01-06T04:12:46.291Z,10.05
2023-01-06T04:15:19.315Z,10.08
2023-01-06T04:17:47.926Z,9.99
2023-01-06T04:20:19.335Z,10.11
2023-01-06T04:22:46.735Z,10.13
2023-01-06T04:25:13.546Z,10.11
2023-01-06T04:27:40.458Z,10.14
2023-01-06T04:30:07.463Z,10.15
2023-01-06T04:32:33.977Z,10.08
2023-01-06T04:35:02.420Z,10.11
2023-01-06T04:37:28.810Z,10.12
2023-01-06T04:39:55.197Z,10.14
2023-01-06T04:42:21.528Z,10.17
2023-01-06T04:44:47.875Z,10.15
2023-01-06T04:47:14.447Z,10.20
2023-01-06T04:49:40.814Z,10.23
2023-01-06T04:52:08.688Z,10.14
2023-01-06T04:54:35.929Z,10.17
2023-01-06T04:57:02.324Z,10.23
2023-01-06T04:59:28.704Z,10.25
2023-01-06T05:01:55.027Z,10.28
2023-01-06T05:04:21.518Z,10.30
2023-01-06T05:06:47.845Z,10.31
2023-01-06T05:09:14.176Z,10.35
2023-01-06T05:11:41.042Z,10.33
2023-01-06T05:14:07.372Z,10.36
2023-01-06T05:16:34.417Z,10.36
2023-01-06T05:19:01.229Z,10.30
2023-01-06T05:21:32.468Z,10.36
2023-01-06T05:23:59.186Z,10.38
2023-01-06T05:26:27.130Z,10.32
2023-01-06T05:28:53.675Z,10.31
2023-01-06T05:31:20.308Z,10.37
2023-01-06T05:33:46.734Z,10.39
2023-01-06T05:36:15.449Z,10.42
2023-01-06T05:38:41.923Z,10.45
2023-01-06T05:41:08.727Z,10.48
2023-01-06T05:43:36.479Z,10.49
2023-01-06T05:46:07.892Z,10.52
2023-01-06T05:48:35.043Z,10.54
2023-01-06T05:51:03.407Z,10.50
2023-01-06T05:53:34.585Z,10.51
2023-01-06T05:56:05.740Z,10.51
2023-01-06T05:58:34.976Z,10.56
2023-01-06T06:01:01.516Z,10.56
2023-01-06T06:03:27.861Z,10.55
2023-01-06T06:05:54.559Z,10.54
2023-01-06T06:08:21.194Z,10.54
2023-01-06T06:10:47.536Z,10.53
2023-01-06T06:13:13.852Z,10.49
2023-01-06T06:15:40.163Z,10.49
2023-01-06T06:18:06.496Z,10.52
2023-01-06T06:20:32.888Z,10.50
2023-01-06T06:22:59.271Z,10.51
2023-01-06T06:25:25.669Z,10.44
2023-01-06T06:27:51.988Z,10.43
2023-01-06T06:30:18.430Z,10.33
2023-01-06T06:32:44.786Z,10.31
2023-01-06T06:35:11.106Z,10.28
2023-01-06T06:37:37.469Z,10.27
2023-01-06T06:40:04.369Z,10.20
2023-01-06T06:42:30.735Z,10.20
2023-01-06T06:44:57.130Z,10.21
2023-01-06T06:47:23.462Z,10.23
2023-01-06T06:49:51.070Z,10.28
2023-01-06T06:52:17.464Z,10.28
2023-01-06T06:54:43.793Z,10.30
2023-01-06T06:57:10.127Z,10.27
2023-01-06T06:59:36.476Z,10.22
2023-01-06T07:02:02.985Z,10.21
2023-01-06T07:04:29.467Z,10.20
2023-01-06T07:06:56.748Z,10.15
2023-01-06T07:09:23.075Z,10.15
2023-01-06T07:11:49.394Z,10.25
2023-01-06T07:14:15.708Z,10.26
2023-01-06T07:16:42.018Z,10.23
2023-01-06T07:19:09.347Z,10.28
2023-01-06T07:21:35.674Z,10.28
2023-01-06T07:24:01.997Z,10.30
2023-01-06T07:26:28.305Z,10.24
2023-01-06T07:28:54.625Z,10.27
2023-01-06T07:31:21.030Z,10.27
2023-01-06T07:33:47.398Z,10.30
2023-01-06T07:36:13.754Z,10.33
2023-01-06T07:38:40.090Z,10.38
2023-01-06T07:41:06.412Z,10.38
2023-01-06T07:43:32.816Z,10.41
2023-01-06T07:45:59.137Z,10.46
2023-01-06T07:48:25.570Z,10.48
2023-01-06T07:50:52.069Z,10.41
2023-01-06T07:53:18.499Z,10.41
2023-01-06T07:55:54.720Z,10.45
2023-01-06T07:58:23.833Z,10.42
2023-01-06T08:00:50.394Z,10.46
2023-01-06T08:03:16.855Z,10.47
2023-01-06T08:05:43.734Z,10.50
2023-01-06T08:08:11.006Z,10.56
2023-01-06T08:10:41.835Z,10.52
2023-01-06T08:13:09.511Z,10.52
2023-01-06T08:15:37.410Z,10.54
2023-01-06T08:18:04.064Z,10.54
2023-01-06T08:20:30.472Z,10.52
2023-01-06T08:22:57.853Z,10.58
2023-01-06T08:25:24.277Z,10.58
2023-01-06T08:27:50.774Z,10.64
2023-01-06T08:30:21.385Z,10.67
2023-01-06T08:32:48.845Z,10.54
2023-01-06T08:35:15.560Z,10.61
2023-01-06T08:37:41.975Z,10.60
2023-01-06T08:40:08.738Z,10.59
2023-01-06T08:42:35.123Z,10.56
2023-01-06T08:45:01.504Z,10.52
2023-01-06T08:47:27.920Z,10.50
2023-01-06T08:49:54.330Z,10.51
2023-01-06T08:52:20.722Z,10.56
2023-01-06T08:54:47.115Z,10.52
2023-01-06T08:57:15.818Z,10.51
2023-01-06T08:59:42.652Z,10.51
2023-01-06T09:02:10.874Z,10.52
2023-01-06T09:04:37.424Z,10.52
2023-01-06T09:07:04.070Z,10.54
2023-01-06T09:09:30.459Z,10.59
2023-01-06T09:11:57.929Z,10.64
2023-01-06T09:14:24.324Z,10.66
2023-01-06T09:16:50.724Z,10.61
2023-01-06T09:19:17.184Z,10.64
2023-01-06T09:21:45.962Z,10.60
2023-01-06T09:24:13.876Z,10.53
2023-01-06T09:26:40.492Z,10.49
2023-01-06T09:29:06.940Z,10.59
2023-01-06T09:31:33.351Z,10.54
2023-01-06T09:33:59.983Z,10.64
2023-01-06T09:36:26.377Z,10.62
2023-01-06T09:38:52.745Z,10.51
2023-01-06T09:41:40.709Z,10.32
2023-01-06T09:44:24.614Z,10.33
2023-01-06T09:46:52.120Z,10.23
2023-01-06T09:49:51.781Z,10.14
2023-01-06T09:52:31.738Z,10.12
2023-01-06T09:55:07.698Z,10.10
2023-01-06T09:57:38.962Z,10.07
2023-01-06T10:00:15.987Z,10.09
2023-01-06T10:02:43.272Z,10.07
2023-01-06T10:05:24.937Z,10.13
2023-01-06T10:08:03.606Z,10.09
2023-01-06T10:10:42.013Z,10.20
2023-01-06T10:13:51.219Z,10.15
2023-01-06T10:16:33.097Z,10.15
2023-01-06T10:19:45.781Z,10.17
2023-01-06T10:22:32.961Z,10.18
2023-01-06T10:25:34.512Z,10.18
2023-01-06T10:28:22.881Z,10.23
2023-01-06T10:30:52.812Z,10.28
2023-01-06T10:33:28.832Z,10.29
2023-01-06T10:35:57.041Z,10.31
2023-01-06T10:38:40.475Z,10.38
2023-01-06T10:41:32.575Z,10.38
2023-01-06T10:43:59.183Z,10.36
2023-01-06T10:46:33.408Z,10.39
2023-01-06T10:49:01.173Z,10.38
2023-01-06T10:51:36.720Z,10.42
2023-01-06T10:54:09.982Z,10.49
2023-01-06T10:56:39.881Z,10.47
2023-01-06T10:59:09.312Z,10.49
2023-01-06T11:01:38.303Z,10.48
2023-01-06T11:04:07.538Z,10.48
2023-01-06T11:06:34.607Z,10.50
2023-01-06T11:09:07.985Z,10.56
2023-01-06T11:11:47.218Z,10.61
2023-01-06T11:14:17.852Z,10.65
2023-01-06T11:16:54.523Z,10.69
2023-01-06T11:19:33.761Z,10.75
2023-01-06T11:22:00.144Z,10.89
2023-01-06T11:24:27.221Z,11.03
2023-01-06T11:26:54.850Z,11.03
2023-01-06T11:29:35.369Z,10.87
2023-01-06T11:32:18.270Z,10.85
2023-01-06T11:34:54.104Z,10.78
2023-01-06T11:37:40.419Z,10.74
2023-01-06T11:40:32.560Z,10.77
2023-01-06T11:43:14.063Z,10.77
2023-01-06T11:45:54.742Z,10.72
2023-01-06T11:48:25.958Z,10.77
2023-01-06T11:50:58.455Z,10.73
2023-01-06T11:53:26.074Z,10.78
2023-01-06T11:56:03.223Z,10.78
2023-01-06T11:58:41.391Z,10.89
2023-01-06T12:01:10.829Z,11.08
2023-01-06T12:03:51.006Z,11.08
2023-01-06T12:06:29.080Z,11.00
2023-01-06T12:09:23.745Z,11.09
2023-01-06T12:11:52.730Z,11.15
2023-01-06T12:14:42.196Z,11.25
2023-01-06T12:17:33.917Z,11.39
2023-01-06T12:20:19.483Z,11.43
2023-01-06T12:22:54.820Z,11.45
2023-01-06T12:25:30.619Z,11.49
2023-01-06T12:28:15.372Z,11.48
2023-01-06T12:31:10.378Z,11.57
2023-01-06T12:33:55.425Z,11.57
2023-01-06T12:36:34.948Z,11.57
2023-01-06T12:39:27.499Z,11.53
2023-01-06T12:42:26.162Z,11.58
2023-01-06T12:45:11.203Z,11.59
2023-01-06T12:47:41.051Z,11.66
2023-01-06T12:50:47.754Z,11.75
2023-01-06T12:53:34.380Z,11.82
2023-01-06T12:56:38.200Z,11.69
2023-01-06T12:59:47.559Z,11.64
2023-01-06T13:02:32.655Z,11.60
2023-01-06T13:05:22.992Z,11.52
2023-01-06T13:08:14.141Z,11.55
2023-01-06T13:10:47.196Z,11.42
2023-01-06T13:13:32.313Z,11.45
2023-01-06T13:16:08.925Z,11.42
2023-01-06T13:18:57.861Z,11.36
2023-01-06T13:21:25.380Z,11.44
2023-01-06T13:24:29.836Z,11.48
2023-01-06T13:27:14.568Z,11.55
2023-01-06T13:30:07.778Z,11.61
2023-01-06T13:32:49.150Z,11.58
2023-01-06T13:35:46.104Z,11.58
2023-01-06T13:38:22.114Z,11.44
2023-01-06T13:40:51.041Z,11.38
2023-01-06T13:43:32.242Z,11.36
2023-01-06T13:46:04.106Z,11.40
2023-01-06T13:48:35.202Z,11.40
2023-01-06T13:51:04.540Z,11.38
2023-01-06T13:53:40.705Z,11.35
2023-01-06T13:56:12.901Z,11.37
2023-01-06T13:58:39.990Z,11.33
2023-01-06T14:01:10.939Z,11.37
2023-01-06T14:03:42.282Z,11.34
2023-01-06T14:06:24.280Z,11.36
2023-01-06T14:08:57.092Z,11.41
2023-01-06T14:11:32.969Z,11.50
2023-01-06T14:14:03.001Z,11.42
2023-01-06T14:16:41.757Z,11.40
2023-01-06T14:19:16.198Z,11.35
2023-01-06T14:21:43.091Z,11.33
2023-01-06T14:24:28.657Z,11.37
2023-01-06T14:27:08.070Z,11.36
2023-01-06T14:29:40.763Z,11.36
2023-01-06T14:32:19.288Z,11.49
2023-01-06T14:34:59.071Z,11.52
2023-01-06T14:37:32.291Z,11.43
2023-01-06T14:40:01.198Z,11.45
2023-01-06T14:42:43.315Z,11.39
2023-01-06T14:45:18.854Z,11.38
2023-01-06T14:47:49.119Z,11.38
2023-01-06T14:50:41.948Z,11.40
2023-01-06T14:53:37.036Z,11.47
2023-01-06T14:56:05.004Z,11.47
2023-01-06T14:58:36.783Z,11.38
2023-01-06T15:01:05.663Z,11.35
2023-01-06T15:03:33.401Z,11.28
2023-01-06T15:06:21.501Z,11.16
2023-01-06T15:08:48.487Z,11.15
2023-01-06T15:11:30.271Z,11.08
2023-01-06T15:13:57.189Z,11.01
2023-01-06T15:16:32.729Z,11.02
2023-01-06T15:18:59.814Z,10.99
2023-01-06T15:21:26.510Z,10.98
2023-01-06T15:23:55.096Z,10.87
2023-01-06T15:26:26.853Z,10.96
2023-01-06T15:28:58.018Z,10.83
2023-01-06T15:31:24.438Z,10.77
2023-01-06T15:33:52.569Z,10.75
2023-01-06T15:36:21.928Z,10.68
2023-01-06T15:38:50.238Z,10.60
2023-01-06T15:41:36.579Z,10.60
2023-01-06T15:44:36.746Z,10.63
2023-01-06T15:47:12.182Z,10.62
2023-01-06T15:49:53.226Z,10.66
2023-01-06T15:52:44.938Z,10.66
2023-01-06T15:55:32.529Z,10.70
2023-01-06T15:58:04.099Z,10.75
2023-01-06T16:00:41.345Z,10.75
2023-01-06T16:03:19.567Z,10.75
2023-01-06T16:05:50.994Z,10.74
2023-01-06T16:08:25.337Z,10.72
2023-01-06T16:11:48.779Z,10.69
2023-01-06T16:14:36.020Z,10.70
2023-01-06T16:17:12.592Z,10.71
2023-01-06T16:19:48.554Z,10.77
2023-01-06T16:22:30.652Z,10.67
2023-01-06T16:24:58.311Z,10.62
2023-01-06T16:27:26.174Z,10.65
2023-01-06T16:30:14.518Z,10.68
2023-01-06T16:32:42.790Z,10.64
2023-01-06T16:35:30.835Z,10.63
2023-01-06T16:37:57.623Z,10.60
2023-01-06T16:40:25.946Z,10.58
2023-01-06T16:42:58.596Z,10.56
2023-01-06T16:45:40.671Z,10.59
2023-01-06T16:48:07.093Z,10.65
2023-01-06T16:50:39.719Z,10.58
2023-01-06T16:53:15.238Z,10.54
2023-01-06T16:55:42.497Z,10.58
2023-01-06T16:58:21.166Z,10.58
2023-01-06T17:00:54.282Z,10.57
2023-01-06T17:03:24.253Z,10.60
2023-01-06T17:05:53.967Z,10.67
2023-01-06T17:08:39.427Z,10.58
2023-01-06T17:11:18.155Z,10.69
2023-01-06T17:13:52.035Z,10.61
2023-01-06T17:16:21.872Z,10.61
2023-01-06T17:18:50.576Z,10.65
2023-01-06T17:21:24.494Z,10.62
2023-01-06T17:24:02.121Z,10.68
2023-01-06T17:26:29.529Z,10.72
2023-01-06T17:28:57.349Z,10.63
2023-01-06T17:31:34.003Z,10.53
2023-01-06T17:34:31.691Z,10.55
2023-01-06T17:37:06.837Z,10.49
2023-01-06T17:39:39.737Z,10.44
2023-01-06T17:42:12.113Z,10.45
2023-01-06T17:44:50.448Z,10.48
2023-01-06T17:47:16.802Z,10.45
2023-01-06T17:49:50.985Z,10.46
2023-01-06T17:52:31.965Z,10.49
2023-01-06T17:55:44.215Z,10.41
2023-01-06T17:58:16.232Z,10.41
2023-01-06T18:00:43.241Z,10.43
2023-01-06T18:03:18.684Z,10.47
2023-01-06T18:05:45.058Z,10.39
2023-01-06T18:08:16.065Z,10.43
2023-01-06T18:10:51.177Z,10.49
2023-01-06T18:13:21.630Z,10.52
2023-01-06T18:15:52.305Z,10.42
2023-01-06T18:18:34.326Z,10.47
2023-01-06T18:21:13.708Z,10.45
2023-01-06T18:23:41.725Z,10.43
2023-01-06T18:26:26.440Z,10.43
2023-01-06T18:29:01.877Z,10.49
2023-01-06T18:31:34.268Z,10.53
2023-01-06T18:34:01.802Z,10.47
2023-01-06T18:36:28.191Z,10.42
2023-01-06T18:38:55.967Z,10.52
2023-01-06T18:41:22.331Z,10.51
2023-01-06T18:43:48.790Z,10.50
2023-01-06T18:46:17.720Z,10.49
2023-01-06T18:48:45.215Z,10.50
2023-01-06T18:51:23.757Z,10.50
2023-01-06T18:53:51.523Z,10.46
2023-01-06T18:56:21.581Z,10.54
2023-01-06T18:58:53.148Z,10.56
2023-01-06T19:01:22.250Z,10.58
2023-01-06T19:03:57.616Z,10.58
2023-01-06T19:06:35.768Z,10.52
2023-01-06T19:09:21.565Z,10.59
2023-01-06T19:12:00.746Z,10.59
2023-01-06T19:14:29.766Z,10.56
2023-01-06T19:16:58.524Z,10.53
2023-01-06T19:19:34.646Z,10.59
2023-01-06T19:22:19.515Z,10.57
2023-01-06T19:25:27.817Z,10.62
2023-01-06T19:27:55.512Z,10.60
2023-01-06T19:30:42.141Z,10.54
2023-01-06T19:33:27.165Z,10.61
2023-01-06T19:36:25.776Z,10.64
2023-01-06T19:38:52.320Z,10.64
2023-01-06T19:41:23.364Z,10.64
2023-01-06T19:43:51.036Z,10.56
2023-01-06T19:46:26.378Z,10.58
2023-01-06T19:48:55.516Z,10.56
2023-01-06T19:51:34.295Z,10.61
2023-01-06T19:54:04.007Z,10.64
2023-01-06T19:56:33.980Z,10.60
2023-01-06T19:59:03.964Z,10.63
2023-01-06T20:01:32.913Z,10.64
2023-01-06T20:03:59.465Z,10.67
2023-01-06T20:06:25.947Z,10.69
2023-01-06T20:08:53.423Z,10.73
2023-01-06T20:11:24.392Z,10.69
2023-01-06T20:13:50.904Z,10.70
2023-01-06T20:16:17.362Z,10.66
2023-01-06T20:18:43.827Z,10.63
2023-01-06T20:21:10.233Z,10.53
2023-01-06T20:23:36.646Z,10.54
2023-01-06T20:26:03.117Z,10.47
2023-01-06T20:28:29.481Z,10.46
2023-01-06T20:30:56.018Z,10.43
2023-01-06T20:33:22.425Z,10.31
2023-01-06T20:35:48.823Z,10.25
2023-01-06T20:38:15.262Z,10.22
2023-01-06T20:40:41.695Z,10.20
2023-01-06T20:43:08.207Z,10.19
2023-01-06T20:45:34.766Z,10.11
2023-01-06T20:48:01.453Z,10.08
2023-01-06T20:50:28.029Z,10.18
2023-01-06T20:52:54.826Z,10.14
2023-01-06T20:55:21.276Z,10.16
2023-01-06T20:57:48.041Z,10.13
2023-01-06T21:00:14.899Z,10.08
2023-01-06T21:02:41.353Z,10.08
2023-01-06T21:05:08.884Z,10.03
2023-01-06T21:07:35.391Z,10.05
2023-01-06T21:10:01.900Z,10.12
2023-01-06T21:12:28.313Z,10.09
2023-01-06T21:14:54.731Z,10.12
2023-01-06T21:17:21.159Z,10.13
2023-01-06T21:19:47.950Z,10.23
2023-01-06T21:22:14.373Z,10.16
2023-01-06T21:24:40.760Z,10.11
2023-01-06T21:27:07.296Z,10.19
2023-01-06T21:29:33.681Z,10.18
2023-01-06T21:32:00.079Z,10.13
2023-01-06T21:34:26.510Z,10.14
2023-01-06T21:36:52.879Z,10.15
2023-01-06T21:39:19.293Z,10.16
2023-01-06T21:42:04.368Z,10.12
2023-01-06T21:44:30.786Z,10.12
2023-01-06T21:46:59.166Z,10.14
2023-01-06T21:49:25.633Z,10.08
2023-01-06T21:51:54.044Z,10.13
2023-01-06T21:54:20.924Z,10.08
2023-01-06T21:56:47.304Z,10.09
2023-01-06T21:59:13.695Z,10.10
2023-01-06T22:01:40.185Z,10.07
2023-01-06T22:04:06.686Z,10.09
2023-01-06T22:06:34.859Z,10.03
2023-01-06T22:09:05.316Z,10.16
2023-01-06T22:11:33.399Z,10.10
2023-01-06T22:14:00.289Z,10.07
2023-01-06T22:16:27.511Z,10.09
2023-01-06T22:18:55.044Z,10.13
2023-01-06T22:21:21.769Z,10.05
2023-01-06T22:23:49.174Z,10.07
2023-01-06T22:26:15.703Z,10.11
2023-01-06T22:28:42.138Z,10.13
2023-01-06T22:31:08.581Z,10.19
2023-01-06T22:33:35.097Z,10.13
2023-01-06T22:36:01.447Z,10.08
2023-01-06T22:38:27.924Z,10.17
2023-01-06T22:40:54.269Z,10.15
2023-01-06T22:43:22.051Z,10.17
2023-01-06T22:45:58.943Z,10.20
2023-01-06T22:48:25.675Z,10.18
2023-01-06T22:50:56.745Z,10.28
2023-01-06T22:53:23.198Z,10.27
2023-01-06T22:56:03.400Z,10.28
2023-01-06T22:58:30.516Z,10.25
2023-01-06T23:00:56.948Z,10.32
2023-01-06T23:03:23.379Z,10.32
2023-01-06T23:06:05.197Z,10.33
2023-01-06T23:08:34.733Z,10.36
2023-01-06T23:11:23.819Z,10.36
2023-01-06T23:13:56.398Z,10.36
2023-01-06T23:16:23.205Z,10.37
2023-01-06T23:18:49.779Z,10.38
2023-01-06T23:21:21.683Z,10.38
2023-01-06T23:23:49.190Z,10.40
2023-01-06T23:26:18.964Z,10.49
2023-01-06T23:28:45.904Z,10.46
2023-01-06T23:31:24.816Z,10.47
2023-01-06T23:33:55.698Z,10.52
2023-01-06T23:36:23.703Z,10.53
2023-01-06T23:38:50.983Z,10.47
2023-01-06T23:41:20.041Z,10.51
2023-01-06T23:43:47.233Z,10.46
2023-01-06T23:46:20.064Z,10.47
2023-01-06T23:48:47.475Z,10.48
2023-01-06T23:51:14.655Z,10.48
2023-01-06T23:53:41.621Z,10.50
2023-01-06T23:56:10.842Z,10.50
2023-01-06T23:58:38.877Z,10.50
